»·PEaware :: N724RK KJSY-KHIO

N724RK :: KJSY-KHIO

FLIGHT INFORMATION

Flight Status: Arrived
Operator: Privately registered:
United States
More flights under this callsign
Pilot: Zane G. (31)
Aircraft: BEECH AIRCRAFT DUKE
(BE60)
More flights by this aircraft type
Origin: KJSY Joseph State
United States
Destination: KHIO Portland-Hillsboro
United States
More flights between these airports :: More routes between these airports
Route: WOLIP MULES
File this flight plan on PilotEdge
Remarks:
Altitude:
(Current/Filed)
22,000ft
Speed:
(Current/Filed)
285kts
Departed: 19-Jun-17 07:34 PM
Arrived: 19-Jun-17 08:43 PM
Distance/Time
Traveled:
240nm/1:09
Distance/Time
To Go:
Arrived

Flight Plot

Page will automatically refresh every two minutes.

Flight plan parsing failed; only flown route is shown


Map Options




Map Legend


Flown Route
Filed Route
Departure Airport
Arrival Airport
Navaid (VOR, NDB)
Fix

Horizontal Profiles

Position Reports

Time Latitude Longitude Heading Altitude Ground
Speed
19-Jun-17 19:31 45.349553 -117.252173 0 4125ft 0kts
19-Jun-17 19:32 45.349553 -117.252173 359 4125ft 0kts
19-Jun-17 19:33 45.349553 -117.252173 359 4125ft 0kts
19-Jun-17 19:34 45.350727 -117.252163 3 4125ft 19kts
19-Jun-17 19:35 45.352049 -117.252212 343 4125ft 7kts
19-Jun-17 19:36 45.352793 -117.251584 338 4125ft 0kts
19-Jun-17 19:37 45.378821 -117.264807 304 6123ft 150kts
19-Jun-17 19:38 45.357243 -117.315751 231 9515ft 180kts
19-Jun-17 19:39 45.338260 -117.384777 252 12914ft 185kts
19-Jun-17 19:40 45.314447 -117.432365 231 15772ft 149kts
19-Jun-17 19:41 45.314743 -117.502305 268 17510ft 221kts
19-Jun-17 19:42 45.304825 -117.591012 254 17500ft 228kts
19-Jun-17 19:43 45.290210 -117.678738 254 17496ft 228kts
19-Jun-17 19:44 45.275557 -117.766843 254 17494ft 228kts
19-Jun-17 19:45 45.260916 -117.854520 254 17493ft 228kts
19-Jun-17 19:46 45.246168 -117.942333 254 17490ft 229kts
19-Jun-17 19:47 45.247646 -118.033426 271 17490ft 233kts
19-Jun-17 19:48 45.253375 -118.120073 270 19148ft 208kts
19-Jun-17 19:49 45.258222 -118.199075 270 21960ft 200kts
19-Jun-17 19:50 45.263849 -118.289917 271 22045ft 242kts
19-Jun-17 19:51 45.270010 -118.385946 271 22051ft 245kts
19-Jun-17 19:52 45.275980 -118.482277 271 22064ft 245kts
19-Jun-17 19:53 45.281856 -118.578956 271 22059ft 245kts
19-Jun-17 19:54 45.287639 -118.675340 271 22053ft 245kts
19-Jun-17 19:55 45.293321 -118.771538 271 22051ft 244kts
19-Jun-17 19:56 45.298952 -118.868155 270 22023ft 245kts
19-Jun-17 19:57 45.304469 -118.964271 270 22010ft 244kts
19-Jun-17 19:58 45.309883 -119.060173 270 22014ft 243kts
19-Jun-17 19:59 45.315248 -119.156396 270 21934ft 244kts
19-Jun-17 20:00 45.320529 -119.252681 270 21937ft 243kts
19-Jun-17 20:01 45.325699 -119.348551 270 21918ft 244kts
19-Jun-17 20:02 45.330813 -119.444759 270 21915ft 243kts
19-Jun-17 20:03 45.335821 -119.540587 270 21914ft 243kts
19-Jun-17 20:04 45.340752 -119.636455 270 21912ft 243kts
19-Jun-17 20:05 45.345617 -119.732621 270 21913ft 243kts
19-Jun-17 20:06 45.350384 -119.828488 269 21911ft 243kts
19-Jun-17 20:07 45.355068 -119.924138 269 21916ft 242kts
19-Jun-17 20:08 45.359674 -120.019669 268 21934ft 239kts
19-Jun-17 20:09 45.364080 -120.113003 268 21946ft 236kts
19-Jun-17 20:10 45.368372 -120.206012 268 21946ft 236kts
19-Jun-17 20:11 45.372621 -120.299375 268 21946ft 236kts
19-Jun-17 20:12 45.376791 -120.392564 268 21946ft 236kts
19-Jun-17 20:13 45.380885 -120.485775 268 21946ft 236kts
19-Jun-17 20:14 45.384907 -120.579137 268 21886ft 236kts
19-Jun-17 20:15 45.389046 -120.673010 268 20717ft 235kts
19-Jun-17 20:16 45.392924 -120.765076 267 19618ft 232kts
19-Jun-17 20:17 45.396653 -120.856711 267 18515ft 230kts
19-Jun-17 20:17 45.399302 -120.931033 275 17604ft 222kts
19-Jun-17 20:19 45.403411 -121.032608 275 16317ft 218kts
19-Jun-17 20:19 45.406138 -121.103644 274 15914ft 213kts
19-Jun-17 20:20 45.409181 -121.186869 273 15912ft 210kts
19-Jun-17 20:21 45.412183 -121.269880 273 15913ft 210kts
19-Jun-17 20:22 45.415203 -121.353294 273 15915ft 210kts
19-Jun-17 20:24 45.418686 -121.450145 270 15930ft 210kts
19-Jun-17 20:24 45.421036 -121.519301 270 15930ft 210kts
19-Jun-17 20:25 45.423869 -121.602629 270 15932ft 210kts
19-Jun-17 20:26 45.426682 -121.685840 267 15947ft 211kts
19-Jun-17 20:27 45.429368 -121.769866 267 15947ft 212kts
19-Jun-17 20:28 45.432035 -121.853824 268 15949ft 212kts
19-Jun-17 20:29 45.434657 -121.937885 268 15963ft 211kts
19-Jun-17 20:30 45.437189 -122.021487 268 15964ft 211kts
19-Jun-17 20:31 45.439739 -122.104887 268 15963ft 211kts
19-Jun-17 20:32 45.442310 -122.192108 268 14359ft 223kts
19-Jun-17 20:33 45.444722 -122.280348 268 12625ft 221kts
19-Jun-17 20:34 45.446973 -122.367720 273 11020ft 222kts
19-Jun-17 20:35 45.449403 -122.457397 274 9215ft 230kts
19-Jun-17 20:36 45.451856 -122.547828 271 7424ft 227kts
19-Jun-17 20:37 45.439198 -122.632189 240 5630ft 220kts
19-Jun-17 20:38 45.407455 -122.706296 239 4084ft 205kts
19-Jun-17 20:39 45.387516 -122.773649 278 4003ft 174kts
19-Jun-17 20:40 45.420049 -122.823140 322 3112ft 185kts
19-Jun-17 20:41 45.454323 -122.860453 322 2116ft 115kts
19-Jun-17 20:42 45.484920 -122.891336 325 1695ft 140kts
19-Jun-17 20:43 45.513315 -122.921327 323 869ft 117kts
19-Jun-17 20:44 45.537030 -122.946319 325 213ft 76kts
19-Jun-17 20:45 45.541916 -122.952559 230 207ft 0kts
19-Jun-17 20:46 45.539469 -122.950691 145 207ft 25kts
19-Jun-17 20:47 45.535961 -122.951477 35 207ft 11kts
19-Jun-17 20:48 45.536387 -122.951297 343 207ft 0kts

Navigation Log

Ident Type
Flight plan parsing failed, navigation log unavailable